Terminal Aerodrome Forecast
Issued by NWS Memphis, TN

Home | Current Version | Previous Version | Text Only | Print | Product List | Glossary On
Versions: 1 2 3 4 5 6 7 8 9 10 11 12 13 14 15 16 17 18 19 20 21 22 23 24 25
000
FTUS44 KMEG 260522
TAFMEM
TAF
KMEM 260522Z 2606/2706 18010KT P6SM SCT250
     FM260900 18012KT P6SM BKN040
     FM261200 18014G20KT P6SM OVC015
     FM261800 18016G23KT P6SM BKN025
     FM262000 18017G26KT P6SM SCT050
     FM270100 18020G28KT 3SM TSRA BR SCT015 OVC035CB
      TEMPO 2702/2704 27025G40KT 1SM +TSRA OVC015CB
     FM270400 27012KT P6SM VCSH BKN030=

USA.gov is the U.S. government's official web portal to all federal, state and local government web resources and services.